sensor_id;sensor_type;location;lat;lon;timestamp;temperature;humidity
18729;DHT22;9493;51.884;5.188;2023-08-24T00:06:38;17.60;99.90
18729;DHT22;9493;51.884;5.188;2023-08-24T00:09:05;17.80;99.90
18729;DHT22;9493;51.884;5.188;2023-08-24T00:18:54;17.50;99.90
18729;DHT22;9493;51.884;5.188;2023-08-24T00:26:19;17.80;99.90
18729;DHT22;9493;51.884;5.188;2023-08-24T00:36:07;17.40;99.90
18729;DHT22;9493;51.884;5.188;2023-08-24T00:55:52;16.80;99.90
18729;DHT22;9493;51.884;5.188;2023-08-24T01:00:49;17.10;99.90
18729;DHT22;9493;51.884;5.188;2023-08-24T01:03:15;17.60;99.90
18729;DHT22;9493;51.884;5.188;2023-08-24T01:05:43;17.50;99.90
18729;DHT22;9493;51.884;5.188;2023-08-24T01:13:09;17.30;99.90
18729;DHT22;9493;51.884;5.188;2023-08-24T01:15:44;17.30;99.90
18729;DHT22;9493;51.884;5.188;2023-08-24T01:20:44;17.10;99.90
18729;DHT22;9493;51.884;5.188;2023-08-24T01:30:47;17.80;99.90
18729;DHT22;9493;51.884;5.188;2023-08-24T01:45:42;17.50;99.90
18729;DHT22;9493;51.884;5.188;2023-08-24T01:55:33;17.80;99.90
18729;DHT22;9493;51.884;5.188;2023-08-24T02:02:57;17.70;99.90
18729;DHT22;9493;51.884;5.188;2023-08-24T02:15:14;17.30;99.90
18729;DHT22;9493;51.884;5.188;2023-08-24T03:26:32;16.70;99.90
18729;DHT22;9493;51.884;5.188;2023-08-24T03:43:43;17.00;99.90
18729;DHT22;9493;51.884;5.188;2023-08-24T04:18:06;17.90;99.90
18729;DHT22;9493;51.884;5.188;2023-08-24T05:04:47;17.80;99.90
18729;DHT22;9493;51.884;5.188;2023-08-24T05:26:55;17.70;99.90
18729;DHT22;9493;51.884;5.188;2023-08-24T05:46:36;17.90;99.90
18729;DHT22;9493;51.884;5.188;2023-08-24T05:49:03;18.00;99.90
18729;DHT22;9493;51.884;5.188;2023-08-24T05:51:30;18.00;99.90
18729;DHT22;9493;51.884;5.188;2023-08-24T06:08:42;17.50;99.90
18729;DHT22;9493;51.884;5.188;2023-08-24T06:13:37;18.10;99.90
18729;DHT22;9493;51.884;5.188;2023-08-24T06:18:31;18.20;99.90
18729;DHT22;9493;51.884;5.188;2023-08-24T06:20:59;18.40;99.90
18729;DHT22;9493;51.884;5.188;2023-08-24T06:23:26;17.90;99.90
18729;DHT22;9493;51.884;5.188;2023-08-24T06:25:52;18.10;99.90
18729;DHT22;9493;51.884;5.188;2023-08-24T06:33:13;18.70;99.90
18729;DHT22;9493;51.884;5.188;2023-08-24T06:40:37;18.70;99.90
18729;DHT22;9493;51.884;5.188;2023-08-24T06:43:03;19.20;99.90
18729;DHT22;9493;51.884;5.188;2023-08-24T06:45:31;18.70;99.90
18729;DHT22;9493;51.884;5.188;2023-08-24T06:47:58;18.50;99.90
18729;DHT22;9493;51.884;5.188;2023-08-24T06:50:24;18.90;99.90
18729;DHT22;9493;51.884;5.188;2023-08-24T06:52:51;19.30;99.90
18729;DHT22;9493;51.884;5.188;2023-08-24T06:55:19;19.80;99.90
18729;DHT22;9493;51.884;5.188;2023-08-24T06:57:48;19.40;99.90
18729;DHT22;9493;51.884;5.188;2023-08-24T07:00:17;19.50;99.90
18729;DHT22;9493;51.884;5.188;2023-08-24T07:02:45;19.00;99.90
18729;DHT22;9493;51.884;5.188;2023-08-24T07:05:12;19.30;99.90
18729;DHT22;9493;51.884;5.188;2023-08-24T07:07:38;19.30;99.90
18729;DHT22;9493;51.884;5.188;2023-08-24T07:10:07;19.70;99.90
18729;DHT22;9493;51.884;5.188;2023-08-24T07:12:35;20.30;99.90
18729;DHT22;9493;51.884;5.188;2023-08-24T07:15:04;20.30;99.90
18729;DHT22;9493;51.884;5.188;2023-08-24T07:17:31;19.50;99.90
18729;DHT22;9493;51.884;5.188;2023-08-24T07:19:58;19.70;99.90
18729;DHT22;9493;51.884;5.188;2023-08-24T07:22:25;20.70;99.90
18729;DHT22;9493;51.884;5.188;2023-08-24T07:24:52;20.30;99.90
18729;DHT22;9493;51.884;5.188;2023-08-24T07:27:19;20.60;99.90
18729;DHT22;9493;51.884;5.188;2023-08-24T07:29:48;20.70;99.90
18729;DHT22;9493;51.884;5.188;2023-08-24T07:34:41;20.90;99.90
18729;DHT22;9493;51.884;5.188;2023-08-24T07:37:08;20.90;99.90
18729;DHT22;9493;51.884;5.188;2023-08-24T07:39:35;20.60;99.90
18729;DHT22;9493;51.884;5.188;2023-08-24T07:42:02;21.30;99.90
18729;DHT22;9493;51.884;5.188;2023-08-24T07:44:29;21.90;99.90
18729;DHT22;9493;51.884;5.188;2023-08-24T07:51:51;21.90;99.90
18729;DHT22;9493;51.884;5.188;2023-08-24T07:54:18;21.70;99.90
18729;DHT22;9493;51.884;5.188;2023-08-24T07:56:45;22.20;99.90
18729;DHT22;9493;51.884;5.188;2023-08-24T07:59:12;22.20;99.90
18729;DHT22;9493;51.884;5.188;2023-08-24T08:01:39;22.30;99.90
18729;DHT22;9493;51.884;5.188;2023-08-24T08:04:07;22.40;99.90
18729;DHT22;9493;51.884;5.188;2023-08-24T08:09:01;22.60;99.90
18729;DHT22;9493;51.884;5.188;2023-08-24T08:11:28;22.60;99.90
18729;DHT22;9493;51.884;5.188;2023-08-24T08:13:56;22.70;99.90
18729;DHT22;9493;51.884;5.188;2023-08-24T08:16:22;22.80;99.90
18729;DHT22;9493;51.884;5.188;2023-08-24T08:18:49;22.80;99.90
18729;DHT22;9493;51.884;5.188;2023-08-24T08:21:18;22.90;99.90
18729;DHT22;9493;51.884;5.188;2023-08-24T08:23:45;22.90;99.90
18729;DHT22;9493;51.884;5.188;2023-08-24T08:28:40;23.00;99.90
18729;DHT22;9493;51.884;5.188;2023-08-24T08:31:07;23.10;99.90
18729;DHT22;9493;51.884;5.188;2023-08-24T08:33:34;23.30;99.90
18729;DHT22;9493;51.884;5.188;2023-08-24T08:36:00;23.10;99.90
18729;DHT22;9493;51.884;5.188;2023-08-24T08:38:30;23.50;99.90
18729;DHT22;9493;51.884;5.188;2023-08-24T08:41:02;23.50;99.90
18729;DHT22;9493;51.884;5.188;2023-08-24T08:43:29;23.60;99.90
18729;DHT22;9493;51.884;5.188;2023-08-24T08:45:58;23.50;99.90
18729;DHT22;9493;51.884;5.188;2023-08-24T08:48:25;23.30;99.90
18729;DHT22;9493;51.884;5.188;2023-08-24T08:50:53;23.20;99.90
18729;DHT22;9493;51.884;5.188;2023-08-24T08:53:22;23.70;99.90
18729;DHT22;9493;51.884;5.188;2023-08-24T08:55:52;23.70;99.90
18729;DHT22;9493;51.884;5.188;2023-08-24T08:58:20;23.70;99.90
18729;DHT22;9493;51.884;5.188;2023-08-24T09:00:47;23.80;99.90
18729;DHT22;9493;51.884;5.188;2023-08-24T09:03:17;23.70;99.90
18729;DHT22;9493;51.884;5.188;2023-08-24T09:05:44;24.20;99.90
18729;DHT22;9493;51.884;5.188;2023-08-24T09:08:14;23.80;99.90
18729;DHT22;9493;51.884;5.188;2023-08-24T09:10:42;23.70;99.90
18729;DHT22;9493;51.884;5.188;2023-08-24T09:13:11;24.10;99.90
18729;DHT22;9493;51.884;5.188;2023-08-24T09:15:38;24.50;99.90
18729;DHT22;9493;51.884;5.188;2023-08-24T09:20:33;24.00;99.90
18729;DHT22;9493;51.884;5.188;2023-08-24T09:23:00;23.80;99.90
18729;DHT22;9493;51.884;5.188;2023-08-24T09:25:27;24.30;99.90
18729;DHT22;9493;51.884;5.188;2023-08-24T09:27:59;24.30;99.90
18729;DHT22;9493;51.884;5.188;2023-08-24T09:30:31;24.70;99.90
18729;DHT22;9493;51.884;5.188;2023-08-24T09:35:34;24.00;99.90
18729;DHT22;9493;51.884;5.188;2023-08-24T09:38:15;24.40;99.90
18729;DHT22;9493;51.884;5.188;2023-08-24T09:40:45;24.10;99.90
18729;DHT22;9493;51.884;5.188;2023-08-24T09:43:13;24.60;99.90
18729;DHT22;9493;51.884;5.188;2023-08-24T09:45:49;24.90;99.90
18729;DHT22;9493;51.884;5.188;2023-08-24T09:48:16;24.70;99.90
18729;DHT22;9493;51.884;5.188;2023-08-24T09:50:44;24.40;99.90
18729;DHT22;9493;51.884;5.188;2023-08-24T09:53:16;24.20;99.90
18729;DHT22;9493;51.884;5.188;2023-08-24T09:55:44;24.30;99.90
18729;DHT22;9493;51.884;5.188;2023-08-24T09:58:15;23.80;99.90
18729;DHT22;9493;51.884;5.188;2023-08-24T10:00:46;23.80;99.90
18729;DHT22;9493;51.884;5.188;2023-08-24T10:03:18;24.10;99.90
18729;DHT22;9493;51.884;5.188;2023-08-24T10:08:15;24.20;99.90
18729;DHT22;9493;51.884;5.188;2023-08-24T10:10:44;24.30;99.90
18729;DHT22;9493;51.884;5.188;2023-08-24T10:13:17;24.10;99.90
18729;DHT22;9493;51.884;5.188;2023-08-24T10:15:46;23.90;99.90
18729;DHT22;9493;51.884;5.188;2023-08-24T10:18:17;24.50;99.90
18729;DHT22;9493;51.884;5.188;2023-08-24T10:20:45;23.70;99.90
18729;DHT22;9493;51.884;5.188;2023-08-24T10:23:14;24.00;99.90
18729;DHT22;9493;51.884;5.188;2023-08-24T10:25:42;23.90;99.90
18729;DHT22;9493;51.884;5.188;2023-08-24T10:28:11;24.20;99.90
18729;DHT22;9493;51.884;5.188;2023-08-24T10:30:38;24.00;99.90
18729;DHT22;9493;51.884;5.188;2023-08-24T10:33:06;23.30;99.90
18729;DHT22;9493;51.884;5.188;2023-08-24T10:35:34;24.00;99.90
18729;DHT22;9493;51.884;5.188;2023-08-24T10:38:01;23.60;99.90
18729;DHT22;9493;51.884;5.188;2023-08-24T10:40:32;23.80;99.90
18729;DHT22;9493;51.884;5.188;2023-08-24T10:43:02;24.30;99.90
18729;DHT22;9493;51.884;5.188;2023-08-24T10:45:54;23.90;99.90
18729;DHT22;9493;51.884;5.188;2023-08-24T10:48:22;24.00;99.90
18729;DHT22;9493;51.884;5.188;2023-08-24T10:51:18;24.40;99.90
18729;DHT22;9493;51.884;5.188;2023-08-24T10:53:51;23.80;99.90
18729;DHT22;9493;51.884;5.188;2023-08-24T10:56:19;24.00;99.90
18729;DHT22;9493;51.884;5.188;2023-08-24T10:58:47;24.10;99.90
18729;DHT22;9493;51.884;5.188;2023-08-24T11:01:34;24.00;99.90
18729;DHT22;9493;51.884;5.188;2023-08-24T11:04:05;24.20;99.90
18729;DHT22;9493;51.884;5.188;2023-08-24T11:06:33;24.30;99.90
18729;DHT22;9493;51.884;5.188;2023-08-24T11:09:08;23.80;99.90
18729;DHT22;9493;51.884;5.188;2023-08-24T11:11:39;24.20;99.90
18729;DHT22;9493;51.884;5.188;2023-08-24T11:14:17;24.10;99.90
18729;DHT22;9493;51.884;5.188;2023-08-24T11:16:46;23.90;99.90
18729;DHT22;9493;51.884;5.188;2023-08-24T11:19:14;24.60;99.90
18729;DHT22;9493;51.884;5.188;2023-08-24T11:21:43;23.50;99.90
18729;DHT22;9493;51.884;5.188;2023-08-24T11:24:11;24.50;99.90
18729;DHT22;9493;51.884;5.188;2023-08-24T11:26:43;24.30;99.90
18729;DHT22;9493;51.884;5.188;2023-08-24T11:29:10;24.20;99.90
18729;DHT22;9493;51.884;5.188;2023-08-24T11:31:37;24.50;99.90
18729;DHT22;9493;51.884;5.188;2023-08-24T11:34:05;23.90;99.90
18729;DHT22;9493;51.884;5.188;2023-08-24T11:36:43;23.60;99.90
18729;DHT22;9493;51.884;5.188;2023-08-24T11:39:15;24.40;99.90
18729;DHT22;9493;51.884;5.188;2023-08-24T11:44:11;24.30;99.90
18729;DHT22;9493;51.884;5.188;2023-08-24T11:46:38;24.40;99.90
18729;DHT22;9493;51.884;5.188;2023-08-24T11:49:05;24.10;99.90
18729;DHT22;9493;51.884;5.188;2023-08-24T11:51:32;25.00;99.90
18729;DHT22;9493;51.884;5.188;2023-08-24T11:54:01;24.50;99.90
18729;DHT22;9493;51.884;5.188;2023-08-24T11:56:29;24.60;99.90
18729;DHT22;9493;51.884;5.188;2023-08-24T11:58:56;24.60;99.90
18729;DHT22;9493;51.884;5.188;2023-08-24T12:01:24;24.30;99.90
18729;DHT22;9493;51.884;5.188;2023-08-24T12:03:52;24.80;99.90
18729;DHT22;9493;51.884;5.188;2023-08-24T12:06:19;24.60;99.90
18729;DHT22;9493;51.884;5.188;2023-08-24T12:11:18;24.70;99.90
18729;DHT22;9493;51.884;5.188;2023-08-24T12:13:46;24.60;99.90
18729;DHT22;9493;51.884;5.188;2023-08-24T12:16:15;24.30;99.90
18729;DHT22;9493;51.884;5.188;2023-08-24T12:18:50;24.60;99.90
18729;DHT22;9493;51.884;5.188;2023-08-24T12:21:18;24.40;99.90
18729;DHT22;9493;51.884;5.188;2023-08-24T12:23:55;25.00;99.90
18729;DHT22;9493;51.884;5.188;2023-08-24T12:26:23;24.90;99.90
18729;DHT22;9493;51.884;5.188;2023-08-24T12:28:51;25.00;99.90
18729;DHT22;9493;51.884;5.188;2023-08-24T12:31:19;25.10;99.90
18729;DHT22;9493;51.884;5.188;2023-08-24T12:33:58;25.00;99.90
18729;DHT22;9493;51.884;5.188;2023-08-24T12:36:27;24.90;99.90
18729;DHT22;9493;51.884;5.188;2023-08-24T12:41:23;25.60;99.90
18729;DHT22;9493;51.884;5.188;2023-08-24T12:43:52;25.30;99.90
18729;DHT22;9493;51.884;5.188;2023-08-24T12:46:19;26.20;99.90
18729;DHT22;9493;51.884;5.188;2023-08-24T12:48:46;26.10;99.90
18729;DHT22;9493;51.884;5.188;2023-08-24T12:51:13;25.90;99.90
18729;DHT22;9493;51.884;5.188;2023-08-24T12:53:40;25.70;99.90
18729;DHT22;9493;51.884;5.188;2023-08-24T12:56:06;25.50;99.90
18729;DHT22;9493;51.884;5.188;2023-08-24T12:58:35;25.60;99.90
18729;DHT22;9493;51.884;5.188;2023-08-24T13:01:01;25.70;99.90
18729;DHT22;9493;51.884;5.188;2023-08-24T13:03:29;26.00;99.90
18729;DHT22;9493;51.884;5.188;2023-08-24T13:08:24;25.90;99.90
18729;DHT22;9493;51.884;5.188;2023-08-24T13:10:51;25.80;99.90
18729;DHT22;9493;51.884;5.188;2023-08-24T13:15:49;26.10;99.90
18729;DHT22;9493;51.884;5.188;2023-08-24T13:18:15;26.10;99.90
18729;DHT22;9493;51.884;5.188;2023-08-24T13:20:42;26.00;99.90
18729;DHT22;9493;51.884;5.188;2023-08-24T13:23:09;25.30;99.90
18729;DHT22;9493;51.884;5.188;2023-08-24T13:25:36;25.60;99.90
18729;DHT22;9493;51.884;5.188;2023-08-24T13:28:03;25.80;99.90
18729;DHT22;9493;51.884;5.188;2023-08-24T13:30:30;25.90;99.90
18729;DHT22;9493;51.884;5.188;2023-08-24T13:32:58;25.60;99.90
18729;DHT22;9493;51.884;5.188;2023-08-24T13:35:26;25.50;99.90
18729;DHT22;9493;51.884;5.188;2023-08-24T13:37:53;25.60;99.90
18729;DHT22;9493;51.884;5.188;2023-08-24T13:40:19;25.60;99.90
18729;DHT22;9493;51.884;5.188;2023-08-24T13:42:46;25.60;99.90
18729;DHT22;9493;51.884;5.188;2023-08-24T13:45:13;25.70;99.90
18729;DHT22;9493;51.884;5.188;2023-08-24T13:47:40;25.90;99.90
18729;DHT22;9493;51.884;5.188;2023-08-24T13:50:08;25.50;99.90
18729;DHT22;9493;51.884;5.188;2023-08-24T13:52:35;25.60;99.90
18729;DHT22;9493;51.884;5.188;2023-08-24T13:55:03;25.60;99.90
18729;DHT22;9493;51.884;5.188;2023-08-24T13:57:30;25.60;99.90
18729;DHT22;9493;51.884;5.188;2023-08-24T13:59:56;25.80;99.90
18729;DHT22;9493;51.884;5.188;2023-08-24T14:02:23;25.60;99.90
18729;DHT22;9493;51.884;5.188;2023-08-24T14:04:50;25.40;99.90
18729;DHT22;9493;51.884;5.188;2023-08-24T14:07:19;25.30;99.90
18729;DHT22;9493;51.884;5.188;2023-08-24T14:09:46;25.60;99.90
18729;DHT22;9493;51.884;5.188;2023-08-24T14:14:40;25.50;99.90
18729;DHT22;9493;51.884;5.188;2023-08-24T14:17:07;25.70;99.90
18729;DHT22;9493;51.884;5.188;2023-08-24T14:19:34;26.70;99.90
18729;DHT22;9493;51.884;5.188;2023-08-24T14:22:01;25.60;99.90
18729;DHT22;9493;51.884;5.188;2023-08-24T14:24:29;25.50;99.90
18729;DHT22;9493;51.884;5.188;2023-08-24T14:26:56;25.20;99.90
18729;DHT22;9493;51.884;5.188;2023-08-24T14:29:23;25.50;99.90
18729;DHT22;9493;51.884;5.188;2023-08-24T14:31:49;25.20;99.90
18729;DHT22;9493;51.884;5.188;2023-08-24T14:34:16;25.20;99.90
18729;DHT22;9493;51.884;5.188;2023-08-24T14:36:43;25.50;99.90
18729;DHT22;9493;51.884;5.188;2023-08-24T14:41:40;25.30;99.90
18729;DHT22;9493;51.884;5.188;2023-08-24T14:44:07;25.00;99.90
18729;DHT22;9493;51.884;5.188;2023-08-24T14:46:35;25.20;99.90
18729;DHT22;9493;51.884;5.188;2023-08-24T14:49:02;25.10;99.90
18729;DHT22;9493;51.884;5.188;2023-08-24T14:51:29;25.00;99.90
18729;DHT22;9493;51.884;5.188;2023-08-24T14:53:56;25.60;99.90
18729;DHT22;9493;51.884;5.188;2023-08-24T14:56:22;25.30;99.90
18729;DHT22;9493;51.884;5.188;2023-08-24T14:58:51;24.70;99.90
18729;DHT22;9493;51.884;5.188;2023-08-24T15:01:17;26.00;99.90
18729;DHT22;9493;51.884;5.188;2023-08-24T15:03:44;25.80;99.90
18729;DHT22;9493;51.884;5.188;2023-08-24T15:06:11;25.50;99.90
18729;DHT22;9493;51.884;5.188;2023-08-24T15:08:38;25.60;99.90
18729;DHT22;9493;51.884;5.188;2023-08-24T15:11:06;25.30;99.90
18729;DHT22;9493;51.884;5.188;2023-08-24T15:13:33;25.00;99.90
18729;DHT22;9493;51.884;5.188;2023-08-24T15:16:01;24.80;99.90
18729;DHT22;9493;51.884;5.188;2023-08-24T15:18:28;25.40;99.90
18729;DHT22;9493;51.884;5.188;2023-08-24T15:20:55;25.10;99.90
18729;DHT22;9493;51.884;5.188;2023-08-24T15:23:23;25.50;99.90
18729;DHT22;9493;51.884;5.188;2023-08-24T15:25:52;24.70;99.90
18729;DHT22;9493;51.884;5.188;2023-08-24T15:28:19;25.00;99.90
18729;DHT22;9493;51.884;5.188;2023-08-24T15:33:14;25.10;99.90
18729;DHT22;9493;51.884;5.188;2023-08-24T15:35:41;24.80;99.90
18729;DHT22;9493;51.884;5.188;2023-08-24T15:38:09;25.20;99.90
18729;DHT22;9493;51.884;5.188;2023-08-24T15:40:37;25.10;99.90
18729;DHT22;9493;51.884;5.188;2023-08-24T15:43:06;25.20;99.90
18729;DHT22;9493;51.884;5.188;2023-08-24T15:45:33;26.00;99.90
18729;DHT22;9493;51.884;5.188;2023-08-24T15:50:29;25.90;99.90
18729;DHT22;9493;51.884;5.188;2023-08-24T15:52:57;25.80;99.90
18729;DHT22;9493;51.884;5.188;2023-08-24T15:55:29;25.50;99.90
18729;DHT22;9493;51.884;5.188;2023-08-24T15:57:58;25.10;99.90
18729;DHT22;9493;51.884;5.188;2023-08-24T16:00:26;24.70;99.90
18729;DHT22;9493;51.884;5.188;2023-08-24T16:02:53;24.10;99.90
18729;DHT22;9493;51.884;5.188;2023-08-24T16:05:20;24.20;99.90
18729;DHT22;9493;51.884;5.188;2023-08-24T16:07:50;24.70;99.90
18729;DHT22;9493;51.884;5.188;2023-08-24T16:10:17;24.60;99.90
18729;DHT22;9493;51.884;5.188;2023-08-24T16:12:44;24.80;99.90
18729;DHT22;9493;51.884;5.188;2023-08-24T16:15:11;23.80;99.90
18729;DHT22;9493;51.884;5.188;2023-08-24T16:17:38;24.60;99.90
18729;DHT22;9493;51.884;5.188;2023-08-24T16:20:05;24.90;99.90
18729;DHT22;9493;51.884;5.188;2023-08-24T16:22:35;24.20;99.90
18729;DHT22;9493;51.884;5.188;2023-08-24T16:25:05;24.60;99.90
18729;DHT22;9493;51.884;5.188;2023-08-24T16:27:33;24.80;99.90
18729;DHT22;9493;51.884;5.188;2023-08-24T16:30:00;24.50;99.90
18729;DHT22;9493;51.884;5.188;2023-08-24T16:32:27;24.30;99.90
18729;DHT22;9493;51.884;5.188;2023-08-24T16:34:54;24.20;99.90
18729;DHT22;9493;51.884;5.188;2023-08-24T16:37:20;23.90;99.90
18729;DHT22;9493;51.884;5.188;2023-08-24T16:39:47;24.70;99.90
18729;DHT22;9493;51.884;5.188;2023-08-24T16:42:15;23.90;99.90
18729;DHT22;9493;51.884;5.188;2023-08-24T16:44:42;24.50;99.90
18729;DHT22;9493;51.884;5.188;2023-08-24T16:49:36;24.50;99.90
18729;DHT22;9493;51.884;5.188;2023-08-24T16:52:03;24.80;99.90
18729;DHT22;9493;51.884;5.188;2023-08-24T16:56:58;24.70;99.90
18729;DHT22;9493;51.884;5.188;2023-08-24T16:59:26;24.80;99.90
18729;DHT22;9493;51.884;5.188;2023-08-24T17:01:54;26.00;99.90
18729;DHT22;9493;51.884;5.188;2023-08-24T17:04:21;24.90;99.90
18729;DHT22;9493;51.884;5.188;2023-08-24T17:06:48;23.80;99.90
18729;DHT22;9493;51.884;5.188;2023-08-24T17:11:41;24.60;99.90
18729;DHT22;9493;51.884;5.188;2023-08-24T17:14:08;24.00;99.90
18729;DHT22;9493;51.884;5.188;2023-08-24T17:16:36;23.70;99.90
18729;DHT22;9493;51.884;5.188;2023-08-24T17:19:03;23.60;99.90
18729;DHT22;9493;51.884;5.188;2023-08-24T17:21:30;24.60;99.90
18729;DHT22;9493;51.884;5.188;2023-08-24T17:23:57;23.80;99.90
18729;DHT22;9493;51.884;5.188;2023-08-24T17:26:24;23.90;99.90
18729;DHT22;9493;51.884;5.188;2023-08-24T17:28:50;23.60;99.90
18729;DHT22;9493;51.884;5.188;2023-08-24T17:31:17;24.20;99.90
18729;DHT22;9493;51.884;5.188;2023-08-24T17:33:45;24.30;99.90
18729;DHT22;9493;51.884;5.188;2023-08-24T17:36:12;24.10;99.90
18729;DHT22;9493;51.884;5.188;2023-08-24T17:38:39;23.30;99.90
18729;DHT22;9493;51.884;5.188;2023-08-24T17:46:05;23.70;99.90
18729;DHT22;9493;51.884;5.188;2023-08-24T17:48:32;23.90;99.90
18729;DHT22;9493;51.884;5.188;2023-08-24T17:53:31;23.80;99.90
18729;DHT22;9493;51.884;5.188;2023-08-24T17:58:27;23.80;99.90
18729;DHT22;9493;51.884;5.188;2023-08-24T18:00:55;23.40;99.90
18729;DHT22;9493;51.884;5.188;2023-08-24T18:05:52;22.70;99.90
18729;DHT22;9493;51.884;5.188;2023-08-24T18:08:22;23.40;99.90
18729;DHT22;9493;51.884;5.188;2023-08-24T18:13:16;23.80;99.90
18729;DHT22;9493;51.884;5.188;2023-08-24T18:15:42;23.80;99.90
18729;DHT22;9493;51.884;5.188;2023-08-24T18:18:09;23.40;99.90
18729;DHT22;9493;51.884;5.188;2023-08-24T18:20:36;23.60;99.90
18729;DHT22;9493;51.884;5.188;2023-08-24T18:23:03;23.70;99.90
18729;DHT22;9493;51.884;5.188;2023-08-24T18:25:31;22.70;99.90
18729;DHT22;9493;51.884;5.188;2023-08-24T18:27:58;23.10;99.90
18729;DHT22;9493;51.884;5.188;2023-08-24T18:32:52;23.10;99.90
18729;DHT22;9493;51.884;5.188;2023-08-24T18:37:48;22.60;99.90
18729;DHT22;9493;51.884;5.188;2023-08-24T18:40:15;23.00;99.90
18729;DHT22;9493;51.884;5.188;2023-08-24T18:42:43;22.70;99.90
18729;DHT22;9493;51.884;5.188;2023-08-24T18:45:10;22.70;99.90
18729;DHT22;9493;51.884;5.188;2023-08-24T18:47:38;22.90;99.90
18729;DHT22;9493;51.884;5.188;2023-08-24T18:50:05;22.80;99.90
18729;DHT22;9493;51.884;5.188;2023-08-24T18:52:32;22.30;99.90
18729;DHT22;9493;51.884;5.188;2023-08-24T18:54:59;22.80;99.90
18729;DHT22;9493;51.884;5.188;2023-08-24T19:02:23;22.40;99.90
18729;DHT22;9493;51.884;5.188;2023-08-24T19:04:50;22.60;99.90
18729;DHT22;9493;51.884;5.188;2023-08-24T19:14:38;22.50;99.90
18729;DHT22;9493;51.884;5.188;2023-08-24T19:17:07;22.50;99.90
18729;DHT22;9493;51.884;5.188;2023-08-24T19:19:34;22.30;99.90
18729;DHT22;9493;51.884;5.188;2023-08-24T19:22:00;22.40;99.90
18729;DHT22;9493;51.884;5.188;2023-08-24T19:26:54;22.50;99.90
18729;DHT22;9493;51.884;5.188;2023-08-24T19:29:21;22.30;99.90
18729;DHT22;9493;51.884;5.188;2023-08-24T19:31:48;22.20;99.90
18729;DHT22;9493;51.884;5.188;2023-08-24T19:44:06;21.30;99.90
18729;DHT22;9493;51.884;5.188;2023-08-24T19:49:03;21.80;99.90
18729;DHT22;9493;51.884;5.188;2023-08-24T19:56:26;21.00;99.90
18729;DHT22;9493;51.884;5.188;2023-08-24T20:01:20;21.60;99.90
18729;DHT22;9493;51.884;5.188;2023-08-24T20:03:47;21.50;99.90
18729;DHT22;9493;51.884;5.188;2023-08-24T20:06:22;20.70;99.90
18729;DHT22;9493;51.884;5.188;2023-08-24T20:26:07;21.10;99.90
18729;DHT22;9493;51.884;5.188;2023-08-24T20:28:36;21.00;99.90
18729;DHT22;9493;51.884;5.188;2023-08-24T20:33:31;20.30;99.90
18729;DHT22;9493;51.884;5.188;2023-08-24T20:38:26;21.20;99.90
18729;DHT22;9493;51.884;5.188;2023-08-24T20:40:53;20.80;99.90
18729;DHT22;9493;51.884;5.188;2023-08-24T20:58:05;20.60;99.90
18729;DHT22;9493;51.884;5.188;2023-08-24T21:15:17;20.10;99.90
18729;DHT22;9493;51.884;5.188;2023-08-24T21:22:41;20.10;99.90
18729;DHT22;9493;51.884;5.188;2023-08-24T21:27:35;20.50;99.90
18729;DHT22;9493;51.884;5.188;2023-08-24T21:54:39;20.10;99.90
18729;DHT22;9493;51.884;5.188;2023-08-24T23:08:19;20.20;99.90
18729;DHT22;9493;51.884;5.188;2023-08-24T23:10:46;20.40;99.90
18729;DHT22;9493;51.884;5.188;2023-08-24T23:13:13;20.30;99.90
18729;DHT22;9493;51.884;5.188;2023-08-24T23:15:40;20.10;99.90
18729;DHT22;9493;51.884;5.188;2023-08-24T23:18:08;20.10;99.90
18729;DHT22;9493;51.884;5.188;2023-08-24T23:57:28;19.40;99.90
18729;DHT22;9493;51.884;5.188;2023-08-24T23:59:55;19.60;99.90
